PWSweather.com
Personal Weather Stations
Station Observations
IHTIMAN1
Neighbourhood 1, IhtimanBG 2050

Neighbourhood 1IhtimanBG 2050

Lat: 42.436852, Lon: 23.817921

Elevation: 2066

Station Type: Oregon Scientific WMR968

http://ihtiman-meteo.com

Latest ConditionsUpdated 5:50:16 PM GMT+02:02 Sunday, Apr 23, 2017
Currently Today's Max Today's Min Today's Average
Temperature 45.2°F7.3°C 59.4°F15.2°C 42.8°F6.0°C 48.3°F9.1°C
Dew Point 30.9°F-0.6°C 38.2°F3.4°C 26.9°F-2.8°C 31.0°F-0.6°C
Winds 7.4 mph NW11.9 kmh NW 12.8 mph NNW20.6 kmh NNW - 6.3 mph 10.1 kmh
Wind Gusts 10.1 mph16.3 kmh 18.8 mph30.3 kmh - -
Humidity 57% 74% 37% 52%
Pressure 29.97 in1014.9 mb 30.00 in1015.9 mb 29.86 in1011.2 mb -
Hour Temp Dew Point Humidity Winds Wind Gusts Pressure Precip Precip Rate Daily Precip Total
05:50 PM 45.2°F7.3°C 30.9°F-0.6°C 57% 7.4 mph NW11.9 kmh NW 10.1 mph16.3 kmh 29.97 in1014.9 mb - 0.00 in0.0 mm 0.00 in0.0 mm
05:40 PM 45.3°F7.4°C 31.0°F-0.6°C 57% 7.3 mph WNW11.7 kmh WNW 12.7 mph20.4 kmh 30.00 in1015.9 mb - 0.00 in0.0 mm 0.00 in0.0 mm
05:30 PM 45.3°F7.4°C 31.8°F-0.1°C 59% 8.6 mph WNW13.8 kmh WNW 12.3 mph19.8 kmh 30.00 in1015.9 mb - 0.00 in0.0 mm 0.00 in0.0 mm
05:20 PM 45.5°F7.5°C 32.0°F0.0°C 59% 9.9 mph NNW15.9 kmh NNW 12.7 mph20.4 kmh 30.00 in1015.9 mb - 0.00 in0.0 mm 0.00 in0.0 mm
05:10 PM 45.6°F7.6°C 32.0°F0.0°C 59% 8.8 mph NNW14.2 kmh NNW 10.5 mph16.9 kmh 29.97 in1014.9 mb - 0.00 in0.0 mm 0.00 in0.0 mm
05:00 PM 45.6°F7.6°C 32.5°F0.3°C 60% 7.0 mph N11.3 kmh N 12.7 mph20.4 kmh 29.97 in1014.9 mb - 0.00 in0.0 mm 0.00 in0.0 mm
04:50 PM 45.3°F7.4°C 34.6°F1.4°C 66% 8.2 mph N13.2 kmh N 13.2 mph21.2 kmh 29.97 in1014.9 mb - 0.00 in0.0 mm 0.00 in0.0 mm
04:40 PM 45.1°F7.3°C 34.8°F1.6°C 67% 5.3 mph W8.5 kmh W 5.8 mph9.3 kmh 29.97 in1014.9 mb - 0.00 in0.0 mm 0.00 in0.0 mm
04:30 PM 45.0°F7.2°C 35.0°F1.7°C 68% 4.3 mph NW6.9 kmh NW 4.0 mph6.4 kmh 29.97 in1014.9 mb - 0.00 in0.0 mm 0.00 in0.0 mm
04:20 PM 44.8°F7.1°C 35.2°F1.8°C 69% 7.0 mph NW11.3 kmh NW 8.7 mph14.0 kmh 29.97 in1014.9 mb - 0.00 in0.0 mm 0.00 in0.0 mm
04:10 PM 45.0°F7.2°C 35.8°F2.1°C 70% 8.4 mph NW13.5 kmh NW 8.7 mph14.0 kmh 29.97 in1014.9 mb - 0.00 in0.0 mm 0.00 in0.0 mm
04:00 PM 45.3°F7.4°C 36.5°F2.5°C 71% 8.0 mph NW12.9 kmh NW 8.7 mph14.0 kmh 29.97 in1014.9 mb - 0.00 in0.0 mm 0.00 in0.0 mm
03:50 PM 45.7°F7.6°C 37.6°F3.1°C 73% 8.9 mph NW14.3 kmh NW 12.7 mph20.4 kmh 29.97 in1014.9 mb - 0.00 in0.0 mm 0.00 in0.0 mm
03:40 PM 46.0°F7.8°C 38.2°F3.4°C 74% 8.9 mph NW14.3 kmh NW 12.3 mph19.8 kmh 29.94 in1013.9 mb - 0.00 in0.0 mm 0.00 in0.0 mm
03:30 PM 46.2°F7.9°C 37.0°F2.8°C 70% 6.4 mph N10.3 kmh N 8.7 mph14.0 kmh 29.94 in1013.9 mb - 0.00 in0.0 mm 0.00 in0.0 mm
03:20 PM 46.9°F8.3°C 37.6°F3.1°C 70% 11.8 mph N19.0 kmh N 15.4 mph24.8 kmh 29.94 in1013.9 mb - 0.00 in0.0 mm 0.00 in0.0 mm
03:10 PM 47.5°F8.6°C 38.2°F3.4°C 70% 9.5 mph NNW15.3 kmh NNW 10.5 mph16.9 kmh 29.94 in1013.9 mb - 0.00 in0.0 mm 0.00 in0.0 mm
03:00 PM 48.2°F9.0°C 37.8°F3.2°C 67% 8.4 mph NW13.5 kmh NW 15.0 mph24.1 kmh 29.94 in1013.9 mb - 0.00 in0.0 mm 0.00 in0.0 mm
02:50 PM 49.3°F9.6°C 36.4°F2.4°C 61% 7.8 mph NNW12.6 kmh NNW 10.5 mph16.9 kmh 29.94 in1013.9 mb - 0.00 in0.0 mm 0.00 in0.0 mm
02:40 PM 50.8°F10.4°C 34.3°F1.3°C 53% 10.5 mph NNW16.9 kmh NNW 12.7 mph20.4 kmh 29.94 in1013.9 mb - 0.00 in0.0 mm 0.00 in0.0 mm
02:30 PM 51.8°F11.0°C 33.7°F0.9°C 50% 10.7 mph N17.2 kmh N 17.4 mph28.0 kmh 29.92 in1013.2 mb - 0.00 in0.0 mm 0.00 in0.0 mm
02:20 PM 52.7°F11.5°C 34.1°F1.2°C 49% 11.2 mph NW18.0 kmh NW 18.8 mph30.3 kmh 29.91 in1012.9 mb - 0.00 in0.0 mm 0.00 in0.0 mm
02:10 PM 53.2°F11.8°C 34.6°F1.4°C 49% 7.7 mph NNW12.4 kmh NNW 14.5 mph23.3 kmh 29.91 in1012.9 mb - 0.00 in0.0 mm 0.00 in0.0 mm
02:00 PM 54.3°F12.4°C 32.8°F0.4°C 44% 12.8 mph NNW20.6 kmh NNW 15.4 mph24.8 kmh 29.91 in1012.9 mb - 0.00 in0.0 mm 0.00 in0.0 mm
01:50 PM 55.8°F13.2°C 31.2°F-0.4°C 39% 11.5 mph N18.5 kmh N 13.2 mph21.2 kmh 29.91 in1012.9 mb - 0.00 in0.0 mm 0.00 in0.0 mm
01:40 PM 56.7°F13.7°C 31.3°F-0.4°C 38% 10.9 mph NNW17.5 kmh NNW 15.4 mph24.8 kmh 29.91 in1012.9 mb - 0.00 in0.0 mm 0.00 in0.0 mm
01:30 PM 58.0°F14.4°C 31.8°F-0.1°C 37% 10.2 mph NNW16.4 kmh NNW 14.1 mph22.7 kmh 29.89 in1012.2 mb - 0.00 in0.0 mm 0.00 in0.0 mm
01:20 PM 59.4°F15.2°C 33.1°F0.6°C 37% 8.8 mph N14.2 kmh N 8.3 mph13.4 kmh 29.88 in1011.9 mb - 0.00 in0.0 mm 0.00 in0.0 mm
01:10 PM 58.7°F14.8°C 32.5°F0.3°C 37% 7.4 mph NW11.9 kmh NW 8.7 mph14.0 kmh 29.88 in1011.9 mb - 0.00 in0.0 mm 0.00 in0.0 mm
01:00 PM 57.2°F14.0°C 31.1°F-0.5°C 37% 9.4 mph NW15.1 kmh NW 10.5 mph16.9 kmh 29.88 in1011.9 mb - 0.00 in0.0 mm 0.00 in0.0 mm
12:50 PM 57.4°F14.1°C 31.3°F-0.4°C 37% 7.9 mph NNE12.7 kmh NNE 9.2 mph14.8 kmh 29.88 in1011.9 mb - 0.00 in0.0 mm 0.00 in0.0 mm
12:40 PM 58.1°F14.5°C 31.9°F-0.1°C 37% 5.8 mph NW9.3 kmh NW 12.7 mph20.4 kmh 29.88 in1011.9 mb - 0.00 in0.0 mm 0.00 in0.0 mm
12:30 PM 57.7°F14.3°C 31.6°F-0.2°C 37% 5.9 mph N9.5 kmh N 8.3 mph13.4 kmh 29.91 in1012.9 mb - 0.00 in0.0 mm 0.00 in0.0 mm
12:20 PM 58.1°F14.5°C 31.9°F-0.1°C 37% 4.6 mph NW7.4 kmh NW 7.6 mph12.2 kmh 29.91 in1012.9 mb - 0.00 in0.0 mm 0.00 in0.0 mm
12:10 PM 58.1°F14.5°C 31.9°F-0.1°C 37% 8.2 mph NW13.2 kmh NW 10.5 mph16.9 kmh 29.91 in1012.9 mb - 0.00 in0.0 mm 0.00 in0.0 mm
12:00 PM 56.5°F13.6°C 31.1°F-0.5°C 38% 7.1 mph NE11.4 kmh NE 8.3 mph13.4 kmh 29.91 in1012.9 mb - 0.00 in0.0 mm 0.00 in0.0 mm
11:50 AM 56.4°F13.6°C 31.1°F-0.5°C 38% 7.5 mph WNW12.1 kmh WNW 10.5 mph16.9 kmh 29.91 in1012.9 mb - 0.00 in0.0 mm 0.00 in0.0 mm
11:40 AM 56.7°F13.7°C 31.3°F-0.4°C 38% 6.7 mph NNW10.8 kmh NNW 8.0 mph12.9 kmh 29.91 in1012.9 mb - 0.00 in0.0 mm 0.00 in0.0 mm
11:30 AM 56.4°F13.6°C 31.1°F-0.5°C 38% 6.5 mph N10.5 kmh N 8.0 mph12.9 kmh 29.91 in1012.9 mb - 0.00 in0.0 mm 0.00 in0.0 mm
11:20 AM 57.0°F13.9°C 31.6°F-0.2°C 38% 5.0 mph N8.0 kmh N 6.3 mph10.1 kmh 29.91 in1012.9 mb - 0.00 in0.0 mm 0.00 in0.0 mm
11:10 AM 55.9°F13.3°C 31.3°F-0.4°C 39% 8.2 mph NW13.2 kmh NW 15.0 mph24.1 kmh 29.91 in1012.9 mb - 0.00 in0.0 mm 0.00 in0.0 mm
11:00 AM 56.3°F13.5°C 31.6°F-0.2°C 39% 7.8 mph NNW12.6 kmh NNW 10.9 mph17.5 kmh 29.91 in1012.9 mb - 0.00 in0.0 mm 0.00 in0.0 mm
10:50 AM 57.9°F14.4°C 32.4°F0.2°C 38% 7.7 mph N12.4 kmh N 11.8 mph19.0 kmh 29.91 in1012.9 mb - 0.00 in0.0 mm 0.00 in0.0 mm
10:40 AM 57.0°F13.9°C 32.3°F0.2°C 39% 7.7 mph N12.4 kmh N 8.0 mph12.9 kmh 29.91 in1012.9 mb - 0.00 in0.0 mm 0.00 in0.0 mm
10:30 AM 56.4°F13.6°C 31.8°F-0.1°C 39% 7.6 mph NNW12.2 kmh NNW 13.2 mph21.2 kmh 29.91 in1012.9 mb - 0.00 in0.0 mm 0.00 in0.0 mm
10:20 AM 55.9°F13.3°C 31.9°F-0.1°C 40% 8.1 mph NW13.0 kmh NW 14.1 mph22.7 kmh 29.91 in1012.9 mb - 0.00 in0.0 mm 0.00 in0.0 mm
10:10 AM 55.6°F13.1°C 31.6°F-0.2°C 40% 9.0 mph NNW14.5 kmh NNW 12.3 mph19.8 kmh 29.91 in1012.9 mb - 0.00 in0.0 mm 0.00 in0.0 mm
10:00 AM 55.9°F13.3°C 31.9°F-0.1°C 40% 7.7 mph NW12.4 kmh NW 12.7 mph20.4 kmh 29.91 in1012.9 mb - 0.00 in0.0 mm 0.00 in0.0 mm
09:50 AM 55.3°F12.9°C 33.1°F0.6°C 43% 7.2 mph WNW11.6 kmh WNW 12.3 mph19.8 kmh 29.91 in1012.9 mb - 0.00 in0.0 mm 0.00 in0.0 mm
09:40 AM 54.4°F12.4°C 32.9°F0.5°C 44% 9.4 mph NW15.1 kmh NW 10.5 mph16.9 kmh 29.91 in1012.9 mb - 0.00 in0.0 mm 0.00 in0.0 mm
09:30 AM 53.4°F11.9°C 32.6°F0.3°C 45% 5.7 mph NNW9.2 kmh NNW 8.3 mph13.4 kmh 29.91 in1012.9 mb - 0.00 in0.0 mm 0.00 in0.0 mm
09:20 AM 52.7°F11.5°C 32.5°F0.3°C 46% 8.4 mph NNW13.5 kmh NNW 14.5 mph23.3 kmh 29.91 in1012.9 mb - 0.00 in0.0 mm 0.00 in0.0 mm
09:10 AM 51.3°F10.7°C 32.7°F0.4°C 49% 5.4 mph N8.7 kmh N 8.0 mph12.9 kmh 29.91 in1012.9 mb - 0.00 in0.0 mm 0.00 in0.0 mm
09:00 AM 50.7°F10.4°C 32.2°F0.1°C 49% 6.0 mph NNW9.7 kmh NNW 7.6 mph12.2 kmh 29.91 in1012.9 mb - 0.00 in0.0 mm 0.00 in0.0 mm
08:50 AM 50.4°F10.2°C 31.9°F-0.1°C 49% 5.0 mph NNW8.0 kmh NNW 4.9 mph7.9 kmh 29.91 in1012.9 mb - 0.00 in0.0 mm 0.00 in0.0 mm
08:40 AM 50.4°F10.2°C 31.9°F-0.1°C 49% 7.6 mph NW12.2 kmh NW 9.2 mph14.8 kmh 29.91 in1012.9 mb - 0.00 in0.0 mm 0.00 in0.0 mm
08:30 AM 51.9°F11.1°C 32.8°F0.4°C 48% 6.0 mph WNW9.7 kmh WNW 10.9 mph17.5 kmh 29.91 in1012.9 mb - 0.00 in0.0 mm 0.00 in0.0 mm
08:20 AM 50.8°F10.4°C 32.3°F0.2°C 49% 7.2 mph NW11.6 kmh NW 12.7 mph20.4 kmh 29.91 in1012.9 mb - 0.00 in0.0 mm 0.00 in0.0 mm
08:10 AM 49.5°F9.7°C 31.6°F-0.2°C 50% 10.1 mph NW16.3 kmh NW 13.6 mph21.9 kmh 29.91 in1012.9 mb - 0.00 in0.0 mm 0.00 in0.0 mm
08:00 AM 48.7°F9.3°C 30.9°F-0.6°C 50% 8.9 mph NW14.3 kmh NW 10.5 mph16.9 kmh 29.91 in1012.9 mb - 0.00 in0.0 mm 0.00 in0.0 mm
07:50 AM 48.2°F9.0°C 30.4°F-0.9°C 50% 9.7 mph NW15.6 kmh NW 10.9 mph17.5 kmh 29.91 in1012.9 mb - 0.00 in0.0 mm 0.00 in0.0 mm
07:40 AM 47.3°F8.5°C 30.5°F-0.8°C 52% 7.1 mph NW11.4 kmh NW 13.2 mph21.2 kmh 29.88 in1011.9 mb - 0.00 in0.0 mm 0.00 in0.0 mm
07:30 AM 46.9°F8.3°C 30.7°F-0.7°C 53% 8.8 mph NW14.2 kmh NW 10.5 mph16.9 kmh 29.88 in1011.9 mb - 0.00 in0.0 mm 0.00 in0.0 mm
07:20 AM 45.9°F7.7°C 31.1°F-0.5°C 56% 9.0 mph NW14.5 kmh NW 10.5 mph16.9 kmh 29.88 in1011.9 mb - 0.00 in0.0 mm 0.00 in0.0 mm
07:10 AM 45.0°F7.2°C 30.6°F-0.8°C 57% 5.5 mph NW8.9 kmh NW 9.6 mph15.4 kmh 29.88 in1011.9 mb - 0.00 in0.0 mm 0.00 in0.0 mm
07:00 AM 44.4°F6.9°C 30.1°F-1.1°C 57% 4.6 mph N7.4 kmh N 9.2 mph14.8 kmh 29.88 in1011.9 mb - 0.00 in0.0 mm 0.00 in0.0 mm
06:50 AM 44.1°F6.7°C 29.8°F-1.2°C 57% 1.9 mph N3.1 kmh N 3.1 mph5.0 kmh 29.88 in1011.9 mb - 0.00 in0.0 mm 0.00 in0.0 mm
06:40 AM 43.9°F6.6°C 29.6°F-1.3°C 57% 2.4 mph N3.9 kmh N 2.7 mph4.3 kmh 29.88 in1011.9 mb - 0.00 in0.0 mm 0.00 in0.0 mm
06:30 AM 43.7°F6.5°C 29.5°F-1.4°C 57% 5.6 mph N9.0 kmh N 5.8 mph9.3 kmh 29.86 in1011.2 mb - 0.00 in0.0 mm 0.00 in0.0 mm
06:20 AM 43.5°F6.4°C 29.3°F-1.5°C 57% 3.4 mph N5.5 kmh N 4.0 mph6.4 kmh 29.86 in1011.2 mb - 0.00 in0.0 mm 0.00 in0.0 mm
06:10 AM 43.5°F6.4°C 29.3°F-1.5°C 57% 1.5 mph N2.4 kmh N 4.0 mph6.4 kmh 29.86 in1011.2 mb - 0.00 in0.0 mm 0.00 in0.0 mm
06:00 AM 43.5°F6.4°C 29.3°F-1.5°C 57% 3.8 mph N6.1 kmh N 3.6 mph5.8 kmh 29.86 in1011.2 mb - 0.00 in0.0 mm 0.00 in0.0 mm
05:50 AM 43.5°F6.4°C 29.3°F-1.5°C 57% 2.5 mph N4.0 kmh N 4.0 mph6.4 kmh 29.86 in1011.2 mb - 0.00 in0.0 mm 0.00 in0.0 mm
05:40 AM 43.3°F6.3°C 29.1°F-1.6°C 57% 2.7 mph N4.3 kmh N 4.9 mph7.9 kmh 29.86 in1011.2 mb - 0.00 in0.0 mm 0.00 in0.0 mm
05:30 AM 43.3°F6.3°C 29.1°F-1.6°C 57% 4.2 mph N6.8 kmh N 5.8 mph9.3 kmh 29.86 in1011.2 mb - 0.00 in0.0 mm 0.00 in0.0 mm
05:20 AM 43.2°F6.2°C 28.9°F-1.7°C 57% 4.0 mph NW6.4 kmh NW 4.0 mph6.4 kmh 29.86 in1011.2 mb - 0.00 in0.0 mm 0.00 in0.0 mm
05:10 AM 43.2°F6.2°C 28.9°F-1.7°C 57% 2.1 mph NNW3.4 kmh NNW 8.0 mph12.9 kmh 29.86 in1011.2 mb - 0.00 in0.0 mm 0.00 in0.0 mm
05:00 AM 43.0°F6.1°C 28.8°F-1.8°C 57% 1.7 mph NNW2.7 kmh NNW 3.1 mph5.0 kmh 29.86 in1011.2 mb - 0.00 in0.0 mm 0.00 in0.0 mm
04:50 AM 43.0°F6.1°C 28.3°F-2.1°C 56% 1.6 mph N2.6 kmh N -- 29.86 in1011.2 mb - 0.00 in0.0 mm 0.00 in0.0 mm
04:40 AM 42.8°F6.0°C 28.2°F-2.1°C 56% 3.1 mph N5.0 kmh N 3.6 mph5.8 kmh 29.86 in1011.2 mb - 0.00 in0.0 mm 0.00 in0.0 mm
04:30 AM 42.8°F6.0°C 28.2°F-2.1°C 56% 4.5 mph NNW7.2 kmh NNW 5.8 mph9.3 kmh 29.86 in1011.2 mb - 0.00 in0.0 mm 0.00 in0.0 mm
04:20 AM 42.8°F6.0°C 28.2°F-2.1°C 56% 1.5 mph NW2.4 kmh NW 3.1 mph5.0 kmh 29.86 in1011.2 mb - 0.00 in0.0 mm 0.00 in0.0 mm
04:10 AM 42.8°F6.0°C 28.2°F-2.1°C 56% 2.7 mph N4.3 kmh N 3.6 mph5.8 kmh 29.86 in1011.2 mb - 0.00 in0.0 mm 0.00 in0.0 mm
04:00 AM 42.8°F6.0°C 28.2°F-2.1°C 56% Calm Calm 3.1 mph5.0 kmh 29.86 in1011.2 mb - 0.00 in0.0 mm 0.00 in0.0 mm
03:50 AM 42.8°F6.0°C 28.2°F-2.1°C 56% 2.8 mph NW4.5 kmh NW 4.9 mph7.9 kmh 29.86 in1011.2 mb - 0.00 in0.0 mm 0.00 in0.0 mm
03:40 AM 43.0°F6.1°C 28.3°F-2.1°C 56% 3.1 mph NW5.0 kmh NW 3.6 mph5.8 kmh 29.86 in1011.2 mb - 0.00 in0.0 mm 0.00 in0.0 mm
03:30 AM 43.0°F6.1°C 27.9°F-2.3°C 55% 3.6 mph NW5.8 kmh NW 5.4 mph8.7 kmh 29.86 in1011.2 mb - 0.00 in0.0 mm 0.00 in0.0 mm
03:20 AM 43.0°F6.1°C 27.9°F-2.3°C 55% 4.7 mph NNW7.6 kmh NNW 5.4 mph8.7 kmh 29.86 in1011.2 mb - 0.00 in0.0 mm 0.00 in0.0 mm
03:10 AM 43.0°F6.1°C 27.9°F-2.3°C 55% 5.4 mph NW8.7 kmh NW 5.8 mph9.3 kmh 29.86 in1011.2 mb - 0.00 in0.0 mm 0.00 in0.0 mm
03:00 AM 43.0°F6.1°C 27.9°F-2.3°C 55% 3.6 mph NW5.8 kmh NW 5.8 mph9.3 kmh 29.86 in1011.2 mb - 0.00 in0.0 mm 0.00 in0.0 mm
02:50 AM 43.0°F6.1°C 27.9°F-2.3°C 55% 4.5 mph NNW7.2 kmh NNW 6.3 mph10.1 kmh 29.86 in1011.2 mb - 0.00 in0.0 mm 0.00 in0.0 mm
02:40 AM 43.0°F6.1°C 27.9°F-2.3°C 55% 4.0 mph NNW6.4 kmh NNW 6.3 mph10.1 kmh 29.88 in1011.9 mb - 0.00 in0.0 mm 0.00 in0.0 mm
02:30 AM 43.0°F6.1°C 27.9°F-2.3°C 55% 4.6 mph NNW7.4 kmh NNW 4.9 mph7.9 kmh 29.88 in1011.9 mb - 0.00 in0.0 mm 0.00 in0.0 mm
02:20 AM 43.0°F6.1°C 27.5°F-2.5°C 54% 4.5 mph NNW7.2 kmh NNW 7.6 mph12.2 kmh 29.88 in1011.9 mb - 0.00 in0.0 mm 0.00 in0.0 mm
02:10 AM 43.0°F6.1°C 27.5°F-2.5°C 54% 4.6 mph NW7.4 kmh NW 8.3 mph13.4 kmh 29.88 in1011.9 mb - 0.00 in0.0 mm 0.00 in0.0 mm
02:00 AM 43.2°F6.2°C 27.6°F-2.4°C 54% 4.3 mph NNW6.9 kmh NNW 5.4 mph8.7 kmh 29.88 in1011.9 mb - 0.00 in0.0 mm 0.00 in0.0 mm
01:50 AM 43.3°F6.3°C 27.8°F-2.3°C 54% 3.9 mph NW6.3 kmh NW 5.8 mph9.3 kmh 29.88 in1011.9 mb - 0.00 in0.0 mm 0.00 in0.0 mm
01:40 AM 43.3°F6.3°C 27.8°F-2.3°C 54% 4.8 mph NW7.7 kmh NW 6.3 mph10.1 kmh 29.88 in1011.9 mb - 0.00 in0.0 mm 0.00 in0.0 mm
01:30 AM 43.5°F6.4°C 28.0°F-2.2°C 54% 5.4 mph NW8.7 kmh NW 8.3 mph13.4 kmh 29.88 in1011.9 mb - 0.00 in0.0 mm 0.00 in0.0 mm
01:20 AM 43.5°F6.4°C 28.0°F-2.2°C 54% 5.4 mph NNW8.7 kmh NNW 8.3 mph13.4 kmh 29.88 in1011.9 mb - 0.00 in0.0 mm 0.00 in0.0 mm
01:10 AM 43.5°F6.4°C 28.0°F-2.2°C 54% 5.5 mph WNW8.9 kmh WNW 8.7 mph14.0 kmh 29.88 in1011.9 mb - 0.00 in0.0 mm 0.00 in0.0 mm
01:00 AM 43.3°F6.3°C 27.3°F-2.6°C 53% 7.0 mph NNW11.3 kmh NNW 8.0 mph12.9 kmh 29.88 in1011.9 mb - 0.00 in0.0 mm 0.00 in0.0 mm
12:50 AM 43.3°F6.3°C 27.3°F-2.6°C 53% 2.9 mph NW4.7 kmh NW 4.5 mph7.2 kmh 29.88 in1011.9 mb - 0.00 in0.0 mm 0.00 in0.0 mm
12:40 AM 43.3°F6.3°C 27.3°F-2.6°C 53% 6.3 mph NW10.1 kmh NW 8.0 mph12.9 kmh 29.88 in1011.9 mb - 0.00 in0.0 mm 0.00 in0.0 mm
12:30 AM 43.3°F6.3°C 27.3°F-2.6°C 53% 5.4 mph N8.7 kmh N 8.7 mph14.0 kmh 29.88 in1011.9 mb - 0.00 in0.0 mm 0.00 in0.0 mm
12:20 AM 43.3°F6.3°C 27.3°F-2.6°C 53% 3.8 mph NNW6.1 kmh NNW 5.4 mph8.7 kmh 29.88 in1011.9 mb - 0.00 in0.0 mm 0.00 in0.0 mm
12:10 AM 43.3°F6.3°C 26.9°F-2.8°C 52% Calm Calm 3.1 mph5.0 kmh 29.91 in1012.9 mb - 0.00 in0.0 mm 0.00 in0.0 mm
12:00 AM 43.5°F6.4°C 27.0°F-2.8°C 52% 2.8 mph N4.5 kmh N 3.1 mph5.0 kmh 29.91 in1012.9 mb - 0.00 in0.0 mm 0.00 in0.0 mm